sensor_id;sensor_type;location;lat;lon;timestamp;P1;durP1;ratioP1;P2;durP2;ratioP2
18772;SDS011;9515;50.810;4.418;2023-02-26T00:01:26;14.20;;;4.83;;
18772;SDS011;9515;50.810;4.418;2023-02-26T00:03:55;12.83;;;5.33;;
18772;SDS011;9515;50.810;4.418;2023-02-26T00:06:22;12.97;;;5.23;;
18772;SDS011;9515;50.810;4.418;2023-02-26T00:08:49;16.23;;;5.97;;
18772;SDS011;9515;50.810;4.418;2023-02-26T00:11:15;11.07;;;5.13;;
18772;SDS011;9515;50.810;4.418;2023-02-26T00:13:42;14.33;;;6.10;;
18772;SDS011;9515;50.810;4.418;2023-02-26T00:16:12;14.10;;;5.10;;
18772;SDS011;9515;50.810;4.418;2023-02-26T00:19:00;21.47;;;6.13;;
18772;SDS011;9515;50.810;4.418;2023-02-26T00:21:28;16.77;;;6.03;;
18772;SDS011;9515;50.810;4.418;2023-02-26T00:23:55;14.67;;;6.50;;
18772;SDS011;9515;50.810;4.418;2023-02-26T00:26:22;15.80;;;5.90;;
18772;SDS011;9515;50.810;4.418;2023-02-26T00:28:50;26.10;;;6.77;;
18772;SDS011;9515;50.810;4.418;2023-02-26T00:31:16;14.53;;;6.03;;
18772;SDS011;9515;50.810;4.418;2023-02-26T00:33:44;14.20;;;5.97;;
18772;SDS011;9515;50.810;4.418;2023-02-26T00:41:29;16.13;;;5.73;;
18772;SDS011;9515;50.810;4.418;2023-02-26T00:43:55;18.43;;;6.30;;
18772;SDS011;9515;50.810;4.418;2023-02-26T00:46:24;15.87;;;5.87;;
18772;SDS011;9515;50.810;4.418;2023-02-26T00:51:30;15.47;;;5.70;;
18772;SDS011;9515;50.810;4.418;2023-02-26T00:54:06;12.47;;;5.80;;
18772;SDS011;9515;50.810;4.418;2023-02-26T00:56:40;15.27;;;6.10;;
18772;SDS011;9515;50.810;4.418;2023-02-26T00:59:05;22.40;;;6.20;;
18772;SDS011;9515;50.810;4.418;2023-02-26T01:01:31;16.83;;;5.20;;
18772;SDS011;9515;50.810;4.418;2023-02-26T01:03:57;13.90;;;5.77;;
18772;SDS011;9515;50.810;4.418;2023-02-26T01:06:23;30.03;;;6.20;;
18772;SDS011;9515;50.810;4.418;2023-02-26T01:11:19;13.93;;;5.67;;
18772;SDS011;9515;50.810;4.418;2023-02-26T01:13:45;12.30;;;4.80;;
18772;SDS011;9515;50.810;4.418;2023-02-26T01:16:12;13.67;;;5.70;;
18772;SDS011;9515;50.810;4.418;2023-02-26T01:18:45;12.53;;;5.50;;
18772;SDS011;9515;50.810;4.418;2023-02-26T01:21:18;11.97;;;5.50;;
18772;SDS011;9515;50.810;4.418;2023-02-26T01:23:50;19.23;;;5.93;;
18772;SDS011;9515;50.810;4.418;2023-02-26T01:26:23;18.33;;;5.87;;
18772;SDS011;9515;50.810;4.418;2023-02-26T01:28:51;15.50;;;5.23;;
18772;SDS011;9515;50.810;4.418;2023-02-26T01:31:25;10.87;;;5.23;;
18772;SDS011;9515;50.810;4.418;2023-02-26T01:34:03;15.67;;;5.87;;
18772;SDS011;9515;50.810;4.418;2023-02-26T01:36:40;14.17;;;5.20;;
18772;SDS011;9515;50.810;4.418;2023-02-26T01:39:22;13.43;;;5.77;;
18772;SDS011;9515;50.810;4.418;2023-02-26T01:41:55;10.43;;;5.20;;
18772;SDS011;9515;50.810;4.418;2023-02-26T01:44:35;18.33;;;5.87;;
18772;SDS011;9515;50.810;4.418;2023-02-26T01:47:32;14.47;;;5.40;;
18772;SDS011;9515;50.810;4.418;2023-02-26T01:50:12;17.93;;;5.77;;
18772;SDS011;9515;50.810;4.418;2023-02-26T01:55:21;16.37;;;4.97;;
18772;SDS011;9515;50.810;4.418;2023-02-26T01:57:51;15.27;;;5.47;;
18772;SDS011;9515;50.810;4.418;2023-02-26T02:00:21;13.70;;;5.13;;
18772;SDS011;9515;50.810;4.418;2023-02-26T02:02:47;13.87;;;5.20;;
18772;SDS011;9515;50.810;4.418;2023-02-26T02:05:28;17.87;;;5.20;;
18772;SDS011;9515;50.810;4.418;2023-02-26T02:07:59;20.23;;;5.83;;
18772;SDS011;9515;50.810;4.418;2023-02-26T02:10:25;13.40;;;5.17;;
18772;SDS011;9515;50.810;4.418;2023-02-26T02:12:58;14.87;;;5.57;;
18772;SDS011;9515;50.810;4.418;2023-02-26T02:15:50;13.40;;;4.93;;
18772;SDS011;9515;50.810;4.418;2023-02-26T02:23:42;15.40;;;5.10;;
18772;SDS011;9515;50.810;4.418;2023-02-26T02:37:58;12.83;;;4.57;;
18772;SDS011;9515;50.810;4.418;2023-02-26T02:40:34;13.73;;;4.67;;
18772;SDS011;9515;50.810;4.418;2023-02-26T02:43:05;13.57;;;4.20;;
18772;SDS011;9515;50.810;4.418;2023-02-26T02:45:42;15.40;;;4.67;;
18772;SDS011;9515;50.810;4.418;2023-02-26T02:48:11;12.43;;;4.80;;
18772;SDS011;9515;50.810;4.418;2023-02-26T02:50:48;11.30;;;4.30;;
18772;SDS011;9515;50.810;4.418;2023-02-26T02:53:22;13.53;;;4.80;;
18772;SDS011;9515;50.810;4.418;2023-02-26T02:55:53;11.63;;;3.83;;
18772;SDS011;9515;50.810;4.418;2023-02-26T02:58:25;10.40;;;4.10;;
18772;SDS011;9515;50.810;4.418;2023-02-26T03:01:05;12.30;;;4.33;;
18772;SDS011;9515;50.810;4.418;2023-02-26T03:03:34;9.03;;;3.10;;
18772;SDS011;9515;50.810;4.418;2023-02-26T03:06:21;8.70;;;3.10;;
18772;SDS011;9515;50.810;4.418;2023-02-26T03:08:48;10.27;;;3.20;;
18772;SDS011;9515;50.810;4.418;2023-02-26T03:11:15;7.70;;;2.80;;
18772;SDS011;9515;50.810;4.418;2023-02-26T03:13:41;9.53;;;3.20;;
18772;SDS011;9515;50.810;4.418;2023-02-26T03:27:10;8.87;;;3.00;;
18772;SDS011;9515;50.810;4.418;2023-02-26T03:30:12;8.07;;;3.07;;
18772;SDS011;9515;50.810;4.418;2023-02-26T03:35:17;7.50;;;2.47;;
18772;SDS011;9515;50.810;4.418;2023-02-26T03:37:51;12.90;;;2.70;;
18772;SDS011;9515;50.810;4.418;2023-02-26T03:40:26;7.00;;;2.73;;
18772;SDS011;9515;50.810;4.418;2023-02-26T03:43:02;9.60;;;3.00;;
18772;SDS011;9515;50.810;4.418;2023-02-26T03:45:42;9.17;;;2.80;;
18772;SDS011;9515;50.810;4.418;2023-02-26T03:48:11;9.73;;;2.70;;
18772;SDS011;9515;50.810;4.418;2023-02-26T03:50:45;6.27;;;2.70;;
18772;SDS011;9515;50.810;4.418;2023-02-26T03:53:16;11.67;;;3.37;;
18772;SDS011;9515;50.810;4.418;2023-02-26T03:55:52;13.53;;;3.00;;
18772;SDS011;9515;50.810;4.418;2023-02-26T03:58:22;10.23;;;2.90;;
18772;SDS011;9515;50.810;4.418;2023-02-26T04:00:49;10.90;;;2.90;;
18772;SDS011;9515;50.810;4.418;2023-02-26T04:03:26;12.03;;;2.70;;
18772;SDS011;9515;50.810;4.418;2023-02-26T04:06:08;9.90;;;3.03;;
18772;SDS011;9515;50.810;4.418;2023-02-26T04:08:34;7.17;;;2.63;;
18772;SDS011;9515;50.810;4.418;2023-02-26T04:11:16;7.27;;;2.33;;
18772;SDS011;9515;50.810;4.418;2023-02-26T04:13:44;8.27;;;2.40;;
18772;SDS011;9515;50.810;4.418;2023-02-26T04:16:10;8.80;;;3.50;;
18772;SDS011;9515;50.810;4.418;2023-02-26T04:18:36;10.03;;;3.07;;
18772;SDS011;9515;50.810;4.418;2023-02-26T04:21:02;7.97;;;2.50;;
18772;SDS011;9515;50.810;4.418;2023-02-26T04:23:28;9.63;;;2.57;;
18772;SDS011;9515;50.810;4.418;2023-02-26T04:25:54;6.90;;;2.20;;
18772;SDS011;9515;50.810;4.418;2023-02-26T04:28:20;5.93;;;2.47;;
18772;SDS011;9515;50.810;4.418;2023-02-26T04:30:46;7.33;;;2.90;;
18772;SDS011;9515;50.810;4.418;2023-02-26T04:33:12;7.87;;;2.20;;
18772;SDS011;9515;50.810;4.418;2023-02-26T04:35:38;6.60;;;2.63;;
18772;SDS011;9515;50.810;4.418;2023-02-26T04:38:03;11.17;;;3.03;;
18772;SDS011;9515;50.810;4.418;2023-02-26T04:40:29;9.07;;;2.63;;
18772;SDS011;9515;50.810;4.418;2023-02-26T04:42:55;7.77;;;2.37;;
18772;SDS011;9515;50.810;4.418;2023-02-26T04:45:21;6.70;;;2.37;;
18772;SDS011;9515;50.810;4.418;2023-02-26T04:47:46;10.63;;;2.93;;
18772;SDS011;9515;50.810;4.418;2023-02-26T04:50:12;5.37;;;2.33;;
18772;SDS011;9515;50.810;4.418;2023-02-26T04:52:38;12.40;;;2.40;;
18772;SDS011;9515;50.810;4.418;2023-02-26T04:55:04;10.60;;;2.80;;
18772;SDS011;9515;50.810;4.418;2023-02-26T04:57:31;10.43;;;3.10;;
18772;SDS011;9515;50.810;4.418;2023-02-26T04:59:57;7.43;;;2.53;;
18772;SDS011;9515;50.810;4.418;2023-02-26T05:02:23;17.67;;;2.93;;
18772;SDS011;9515;50.810;4.418;2023-02-26T05:04:49;4.00;;;2.00;;
18772;SDS011;9515;50.810;4.418;2023-02-26T05:07:15;10.03;;;2.20;;
18772;SDS011;9515;50.810;4.418;2023-02-26T05:09:40;6.13;;;2.70;;
18772;SDS011;9515;50.810;4.418;2023-02-26T05:12:06;7.00;;;2.07;;
18772;SDS011;9515;50.810;4.418;2023-02-26T05:14:32;8.23;;;2.00;;
18772;SDS011;9515;50.810;4.418;2023-02-26T05:16:57;5.33;;;2.30;;
18772;SDS011;9515;50.810;4.418;2023-02-26T05:19:23;5.70;;;2.13;;
18772;SDS011;9515;50.810;4.418;2023-02-26T05:21:48;7.07;;;2.10;;
18772;SDS011;9515;50.810;4.418;2023-02-26T05:24:15;6.77;;;2.27;;
18772;SDS011;9515;50.810;4.418;2023-02-26T05:26:41;6.83;;;2.13;;
18772;SDS011;9515;50.810;4.418;2023-02-26T05:29:06;13.10;;;3.70;;
18772;SDS011;9515;50.810;4.418;2023-02-26T05:31:32;7.47;;;2.17;;
18772;SDS011;9515;50.810;4.418;2023-02-26T05:33:58;6.83;;;2.20;;
18772;SDS011;9515;50.810;4.418;2023-02-26T05:36:23;9.77;;;2.60;;
18772;SDS011;9515;50.810;4.418;2023-02-26T05:38:49;6.77;;;1.90;;
18772;SDS011;9515;50.810;4.418;2023-02-26T05:41:15;8.03;;;2.13;;
18772;SDS011;9515;50.810;4.418;2023-02-26T05:43:40;10.87;;;2.23;;
18772;SDS011;9515;50.810;4.418;2023-02-26T05:46:06;10.97;;;2.37;;
18772;SDS011;9515;50.810;4.418;2023-02-26T05:48:32;8.47;;;2.30;;
18772;SDS011;9515;50.810;4.418;2023-02-26T05:50:58;5.67;;;2.00;;
18772;SDS011;9515;50.810;4.418;2023-02-26T05:53:24;4.53;;;2.00;;
18772;SDS011;9515;50.810;4.418;2023-02-26T05:55:51;6.40;;;2.20;;
18772;SDS011;9515;50.810;4.418;2023-02-26T05:58:17;6.87;;;2.20;;
18772;SDS011;9515;50.810;4.418;2023-02-26T06:00:42;6.37;;;2.40;;
18772;SDS011;9515;50.810;4.418;2023-02-26T06:03:08;8.77;;;2.43;;
18772;SDS011;9515;50.810;4.418;2023-02-26T06:05:34;10.97;;;2.07;;
18772;SDS011;9515;50.810;4.418;2023-02-26T06:08:00;6.73;;;2.27;;
18772;SDS011;9515;50.810;4.418;2023-02-26T06:10:26;9.00;;;2.10;;
18772;SDS011;9515;50.810;4.418;2023-02-26T06:12:51;5.27;;;1.70;;
18772;SDS011;9515;50.810;4.418;2023-02-26T06:15:17;8.20;;;2.20;;
18772;SDS011;9515;50.810;4.418;2023-02-26T06:17:43;10.67;;;2.00;;
18772;SDS011;9515;50.810;4.418;2023-02-26T06:20:09;8.37;;;2.10;;
18772;SDS011;9515;50.810;4.418;2023-02-26T06:22:35;11.63;;;1.90;;
18772;SDS011;9515;50.810;4.418;2023-02-26T06:25:01;9.23;;;2.30;;
18772;SDS011;9515;50.810;4.418;2023-02-26T06:27:26;7.67;;;2.00;;
18772;SDS011;9515;50.810;4.418;2023-02-26T06:29:52;8.90;;;2.00;;
18772;SDS011;9515;50.810;4.418;2023-02-26T06:32:18;14.43;;;2.30;;
18772;SDS011;9515;50.810;4.418;2023-02-26T06:34:43;7.30;;;2.10;;
18772;SDS011;9515;50.810;4.418;2023-02-26T06:37:09;7.50;;;1.87;;
18772;SDS011;9515;50.810;4.418;2023-02-26T06:39:34;6.43;;;1.80;;
18772;SDS011;9515;50.810;4.418;2023-02-26T06:42:00;5.93;;;2.50;;
18772;SDS011;9515;50.810;4.418;2023-02-26T06:44:26;12.30;;;2.07;;
18772;SDS011;9515;50.810;4.418;2023-02-26T06:46:51;9.70;;;1.73;;
18772;SDS011;9515;50.810;4.418;2023-02-26T06:49:17;4.47;;;1.60;;
18772;SDS011;9515;50.810;4.418;2023-02-26T06:51:43;10.17;;;2.10;;
18772;SDS011;9515;50.810;4.418;2023-02-26T06:54:08;7.97;;;1.70;;
18772;SDS011;9515;50.810;4.418;2023-02-26T06:56:34;8.17;;;2.30;;
18772;SDS011;9515;50.810;4.418;2023-02-26T06:59:00;7.60;;;2.03;;
18772;SDS011;9515;50.810;4.418;2023-02-26T07:01:25;6.77;;;1.83;;
18772;SDS011;9515;50.810;4.418;2023-02-26T07:03:51;7.67;;;2.10;;
18772;SDS011;9515;50.810;4.418;2023-02-26T07:06:17;4.00;;;1.60;;
18772;SDS011;9515;50.810;4.418;2023-02-26T07:08:43;8.57;;;2.00;;
18772;SDS011;9515;50.810;4.418;2023-02-26T07:11:08;7.80;;;1.77;;
18772;SDS011;9515;50.810;4.418;2023-02-26T07:13:37;6.87;;;1.80;;
18772;SDS011;9515;50.810;4.418;2023-02-26T07:16:04;7.67;;;2.03;;
18772;SDS011;9515;50.810;4.418;2023-02-26T07:18:32;6.97;;;2.00;;
18772;SDS011;9515;50.810;4.418;2023-02-26T07:20:58;10.33;;;2.73;;
18772;SDS011;9515;50.810;4.418;2023-02-26T07:23:24;5.53;;;2.50;;
18772;SDS011;9515;50.810;4.418;2023-02-26T07:25:50;6.73;;;1.60;;
18772;SDS011;9515;50.810;4.418;2023-02-26T07:28:16;5.60;;;1.87;;
18772;SDS011;9515;50.810;4.418;2023-02-26T07:30:41;6.03;;;1.87;;
18772;SDS011;9515;50.810;4.418;2023-02-26T07:33:07;5.83;;;1.73;;
18772;SDS011;9515;50.810;4.418;2023-02-26T07:35:34;7.10;;;1.90;;
18772;SDS011;9515;50.810;4.418;2023-02-26T07:37:59;4.73;;;1.37;;
18772;SDS011;9515;50.810;4.418;2023-02-26T07:40:25;7.30;;;1.60;;
18772;SDS011;9515;50.810;4.418;2023-02-26T07:42:51;6.83;;;1.80;;
18772;SDS011;9515;50.810;4.418;2023-02-26T07:45:17;4.33;;;1.60;;
18772;SDS011;9515;50.810;4.418;2023-02-26T07:47:46;7.53;;;1.60;;
18772;SDS011;9515;50.810;4.418;2023-02-26T07:50:12;5.87;;;1.77;;
18772;SDS011;9515;50.810;4.418;2023-02-26T07:52:38;3.33;;;1.33;;
18772;SDS011;9515;50.810;4.418;2023-02-26T07:55:04;5.73;;;1.43;;
18772;SDS011;9515;50.810;4.418;2023-02-26T07:57:30;7.17;;;1.97;;
18772;SDS011;9515;50.810;4.418;2023-02-26T07:59:55;4.90;;;1.97;;
18772;SDS011;9515;50.810;4.418;2023-02-26T08:02:21;5.63;;;2.00;;
18772;SDS011;9515;50.810;4.418;2023-02-26T08:04:47;4.47;;;1.80;;
18772;SDS011;9515;50.810;4.418;2023-02-26T08:07:13;4.73;;;1.77;;
18772;SDS011;9515;50.810;4.418;2023-02-26T08:09:39;4.00;;;1.73;;
18772;SDS011;9515;50.810;4.418;2023-02-26T08:12:05;10.50;;;1.80;;
18772;SDS011;9515;50.810;4.418;2023-02-26T08:14:30;6.73;;;1.80;;
18772;SDS011;9515;50.810;4.418;2023-02-26T08:16:56;10.20;;;1.83;;
18772;SDS011;9515;50.810;4.418;2023-02-26T08:19:21;7.70;;;1.73;;
18772;SDS011;9515;50.810;4.418;2023-02-26T08:21:47;6.20;;;1.97;;
18772;SDS011;9515;50.810;4.418;2023-02-26T08:24:13;6.20;;;1.60;;
18772;SDS011;9515;50.810;4.418;2023-02-26T08:26:39;7.20;;;1.50;;
18772;SDS011;9515;50.810;4.418;2023-02-26T08:29:04;5.73;;;1.67;;
18772;SDS011;9515;50.810;4.418;2023-02-26T08:31:30;6.43;;;1.40;;
18772;SDS011;9515;50.810;4.418;2023-02-26T08:33:58;3.50;;;1.40;;
18772;SDS011;9515;50.810;4.418;2023-02-26T08:36:24;7.43;;;1.80;;
18772;SDS011;9515;50.810;4.418;2023-02-26T08:38:50;3.50;;;1.87;;
18772;SDS011;9515;50.810;4.418;2023-02-26T08:41:16;5.23;;;1.40;;
18772;SDS011;9515;50.810;4.418;2023-02-26T08:43:41;5.10;;;1.60;;
18772;SDS011;9515;50.810;4.418;2023-02-26T08:46:07;4.87;;;1.90;;
18772;SDS011;9515;50.810;4.418;2023-02-26T08:48:33;4.63;;;1.80;;
18772;SDS011;9515;50.810;4.418;2023-02-26T08:50:59;7.27;;;1.80;;
18772;SDS011;9515;50.810;4.418;2023-02-26T08:53:24;4.47;;;1.80;;
18772;SDS011;9515;50.810;4.418;2023-02-26T08:55:51;4.70;;;1.63;;
18772;SDS011;9515;50.810;4.418;2023-02-26T08:58:18;7.67;;;1.60;;
18772;SDS011;9515;50.810;4.418;2023-02-26T09:00:44;3.53;;;1.60;;
18772;SDS011;9515;50.810;4.418;2023-02-26T09:03:10;8.23;;;1.73;;
18772;SDS011;9515;50.810;4.418;2023-02-26T09:05:36;5.27;;;1.53;;
18772;SDS011;9515;50.810;4.418;2023-02-26T09:08:02;3.93;;;1.50;;
18772;SDS011;9515;50.810;4.418;2023-02-26T09:10:27;5.07;;;1.53;;
18772;SDS011;9515;50.810;4.418;2023-02-26T09:12:53;5.17;;;1.40;;
18772;SDS011;9515;50.810;4.418;2023-02-26T09:15:19;3.40;;;1.27;;
18772;SDS011;9515;50.810;4.418;2023-02-26T09:17:44;4.43;;;1.17;;
18772;SDS011;9515;50.810;4.418;2023-02-26T09:20:11;3.33;;;1.60;;
18772;SDS011;9515;50.810;4.418;2023-02-26T09:22:38;3.57;;;1.67;;
18772;SDS011;9515;50.810;4.418;2023-02-26T09:25:04;6.77;;;1.70;;
18772;SDS011;9515;50.810;4.418;2023-02-26T09:27:31;4.47;;;2.00;;
18772;SDS011;9515;50.810;4.418;2023-02-26T09:29:58;3.53;;;1.33;;
18772;SDS011;9515;50.810;4.418;2023-02-26T09:32:23;2.87;;;1.30;;
18772;SDS011;9515;50.810;4.418;2023-02-26T09:34:50;3.57;;;1.47;;
18772;SDS011;9515;50.810;4.418;2023-02-26T09:37:16;6.00;;;1.83;;
18772;SDS011;9515;50.810;4.418;2023-02-26T09:39:43;4.43;;;1.17;;
18772;SDS011;9515;50.810;4.418;2023-02-26T09:44:46;2.67;;;1.40;;
18772;SDS011;9515;50.810;4.418;2023-02-26T09:47:27;3.60;;;1.40;;
18772;SDS011;9515;50.810;4.418;2023-02-26T09:52:34;3.37;;;1.23;;
18772;SDS011;9515;50.810;4.418;2023-02-26T09:55:14;5.63;;;1.90;;
18772;SDS011;9515;50.810;4.418;2023-02-26T09:57:50;3.90;;;1.13;;
18772;SDS011;9515;50.810;4.418;2023-02-26T10:00:31;5.93;;;1.57;;
18772;SDS011;9515;50.810;4.418;2023-02-26T10:08:15;3.87;;;1.30;;
18772;SDS011;9515;50.810;4.418;2023-02-26T10:13:36;3.30;;;1.00;;
18772;SDS011;9515;50.810;4.418;2023-02-26T10:16:22;2.43;;;1.20;;
18772;SDS011;9515;50.810;4.418;2023-02-26T10:18:54;3.37;;;1.30;;
18772;SDS011;9515;50.810;4.418;2023-02-26T10:23:52;3.00;;;1.27;;
18772;SDS011;9515;50.810;4.418;2023-02-26T10:26:24;2.17;;;1.20;;
18772;SDS011;9515;50.810;4.418;2023-02-26T10:37:19;7.00;;;1.50;;
18772;SDS011;9515;50.810;4.418;2023-02-26T10:39:55;2.33;;;1.03;;
18772;SDS011;9515;50.810;4.418;2023-02-26T10:42:30;2.73;;;1.20;;
18772;SDS011;9515;50.810;4.418;2023-02-26T10:50:36;3.07;;;1.30;;
18772;SDS011;9515;50.810;4.418;2023-02-26T10:53:07;1.87;;;1.10;;
18772;SDS011;9515;50.810;4.418;2023-02-26T10:55:43;1.87;;;1.00;;
18772;SDS011;9515;50.810;4.418;2023-02-26T10:58:16;3.77;;;1.00;;
18772;SDS011;9515;50.810;4.418;2023-02-26T11:00:45;3.37;;;1.10;;
18772;SDS011;9515;50.810;4.418;2023-02-26T11:05:50;2.33;;;1.10;;
18772;SDS011;9515;50.810;4.418;2023-02-26T11:08:24;3.57;;;1.40;;
18772;SDS011;9515;50.810;4.418;2023-02-26T11:10:53;2.87;;;1.20;;
18772;SDS011;9515;50.810;4.418;2023-02-26T11:13:21;5.00;;;1.20;;
18772;SDS011;9515;50.810;4.418;2023-02-26T11:15:50;3.00;;;1.00;;
18772;SDS011;9515;50.810;4.418;2023-02-26T11:18:29;3.23;;;1.30;;
18772;SDS011;9515;50.810;4.418;2023-02-26T11:20:55;1.93;;;1.03;;
18772;SDS011;9515;50.810;4.418;2023-02-26T11:23:25;2.07;;;0.93;;
18772;SDS011;9515;50.810;4.418;2023-02-26T11:25:56;4.70;;;1.10;;
18772;SDS011;9515;50.810;4.418;2023-02-26T11:28:47;2.37;;;1.30;;
18772;SDS011;9515;50.810;4.418;2023-02-26T11:31:16;2.13;;;1.10;;
18772;SDS011;9515;50.810;4.418;2023-02-26T11:33:44;2.77;;;1.13;;
18772;SDS011;9515;50.810;4.418;2023-02-26T11:36:32;2.57;;;1.10;;
18772;SDS011;9515;50.810;4.418;2023-02-26T11:39:04;2.72;;;1.17;;
18772;SDS011;9515;50.810;4.418;2023-02-26T11:41:47;2.63;;;1.10;;
18772;SDS011;9515;50.810;4.418;2023-02-26T11:44:15;1.05;;;0.90;;
18772;SDS011;9515;50.810;4.418;2023-02-26T11:46:45;2.90;;;1.67;;
18772;SDS011;9515;50.810;4.418;2023-02-26T11:49:22;2.53;;;1.17;;
18772;SDS011;9515;50.810;4.418;2023-02-26T11:54:50;2.33;;;1.20;;
18772;SDS011;9515;50.810;4.418;2023-02-26T11:57:25;3.50;;;1.50;;
18772;SDS011;9515;50.810;4.418;2023-02-26T11:59:53;2.88;;;1.25;;
18772;SDS011;9515;50.810;4.418;2023-02-26T12:02:22;2.78;;;1.40;;
18772;SDS011;9515;50.810;4.418;2023-02-26T12:04:52;3.58;;;1.40;;
18772;SDS011;9515;50.810;4.418;2023-02-26T12:07:21;2.28;;;0.95;;
18772;SDS011;9515;50.810;4.418;2023-02-26T12:09:47;1.95;;;1.23;;
18772;SDS011;9515;50.810;4.418;2023-02-26T12:12:32;1.58;;;1.02;;
18772;SDS011;9515;50.810;4.418;2023-02-26T12:15:27;2.33;;;1.20;;
18772;SDS011;9515;50.810;4.418;2023-02-26T12:24:18;3.45;;;1.17;;
18772;SDS011;9515;50.810;4.418;2023-02-26T12:26:52;3.03;;;1.25;;
18772;SDS011;9515;50.810;4.418;2023-02-26T12:29:32;2.55;;;1.48;;
18772;SDS011;9515;50.810;4.418;2023-02-26T12:32:29;1.63;;;1.10;;
18772;SDS011;9515;50.810;4.418;2023-02-26T12:43:54;1.67;;;1.00;;
18772;SDS011;9515;50.810;4.418;2023-02-26T12:46:07;3.00;;;1.13;;
18772;SDS011;9515;50.810;4.418;2023-02-26T12:52:04;1.90;;;0.90;;
18772;SDS011;9515;50.810;4.418;2023-02-26T13:16:41;2.30;;;1.00;;
18772;SDS011;9515;50.810;4.418;2023-02-26T13:19:24;2.03;;;1.15;;
18772;SDS011;9515;50.810;4.418;2023-02-26T13:21:57;3.20;;;1.20;;
18772;SDS011;9515;50.810;4.418;2023-02-26T13:24:39;2.58;;;1.10;;
18772;SDS011;9515;50.810;4.418;2023-02-26T13:27:10;4.40;;;1.08;;
18772;SDS011;9515;50.810;4.418;2023-02-26T13:32:16;3.15;;;1.40;;
18772;SDS011;9515;50.810;4.418;2023-02-26T13:34:53;3.42;;;1.40;;
18772;SDS011;9515;50.810;4.418;2023-02-26T13:42:52;1.80;;;1.10;;
18772;SDS011;9515;50.810;4.418;2023-02-26T13:45:37;2.30;;;0.90;;
18772;SDS011;9515;50.810;4.418;2023-02-26T13:51:04;3.08;;;1.00;;
18772;SDS011;9515;50.810;4.418;2023-02-26T13:53:33;1.38;;;1.27;;
18772;SDS011;9515;50.810;4.418;2023-02-26T14:01:28;1.88;;;1.00;;
18772;SDS011;9515;50.810;4.418;2023-02-26T14:06:57;2.05;;;1.00;;
18772;SDS011;9515;50.810;4.418;2023-02-26T14:12:33;2.28;;;1.05;;
18772;SDS011;9515;50.810;4.418;2023-02-26T14:20:22;2.97;;;1.10;;
18772;SDS011;9515;50.810;4.418;2023-02-26T14:22:50;3.22;;;1.00;;
18772;SDS011;9515;50.810;4.418;2023-02-26T14:25:41;3.42;;;1.10;;
18772;SDS011;9515;50.810;4.418;2023-02-26T14:31:13;3.65;;;1.23;;
18772;SDS011;9515;50.810;4.418;2023-02-26T14:36:26;2.63;;;1.00;;
18772;SDS011;9515;50.810;4.418;2023-02-26T14:39:05;1.70;;;1.00;;
18772;SDS011;9515;50.810;4.418;2023-02-26T14:41:38;1.67;;;0.80;;
18772;SDS011;9515;50.810;4.418;2023-02-26T14:44:13;3.60;;;1.20;;
18772;SDS011;9515;50.810;4.418;2023-02-26T14:46:42;2.08;;;1.00;;
18772;SDS011;9515;50.810;4.418;2023-02-26T14:49:28;1.45;;;1.00;;
18772;SDS011;9515;50.810;4.418;2023-02-26T14:55:00;2.03;;;1.20;;
18772;SDS011;9515;50.810;4.418;2023-02-26T14:57:56;2.75;;;1.00;;
18772;SDS011;9515;50.810;4.418;2023-02-26T15:03:28;3.00;;;1.13;;
18772;SDS011;9515;50.810;4.418;2023-02-26T15:06:20;2.25;;;1.33;;
18772;SDS011;9515;50.810;4.418;2023-02-26T15:23:27;2.00;;;1.03;;
18772;SDS011;9515;50.810;4.418;2023-02-26T15:25:56;4.10;;;1.50;;
18772;SDS011;9515;50.810;4.418;2023-02-26T15:28:26;2.40;;;1.20;;
18772;SDS011;9515;50.810;4.418;2023-02-26T15:30:56;1.17;;;1.03;;
18772;SDS011;9515;50.810;4.418;2023-02-26T15:33:25;2.77;;;1.10;;
18772;SDS011;9515;50.810;4.418;2023-02-26T15:35:51;1.70;;;1.03;;
18772;SDS011;9515;50.810;4.418;2023-02-26T15:38:19;2.10;;;1.43;;
18772;SDS011;9515;50.810;4.418;2023-02-26T15:40:44;2.67;;;1.00;;
18772;SDS011;9515;50.810;4.418;2023-02-26T15:43:15;2.33;;;1.30;;
18772;SDS011;9515;50.810;4.418;2023-02-26T15:45:48;2.73;;;1.40;;
18772;SDS011;9515;50.810;4.418;2023-02-26T15:48:19;1.67;;;1.10;;
18772;SDS011;9515;50.810;4.418;2023-02-26T15:50:55;1.10;;;0.87;;
18772;SDS011;9515;50.810;4.418;2023-02-26T15:53:43;2.20;;;1.00;;
18772;SDS011;9515;50.810;4.418;2023-02-26T15:56:13;4.33;;;1.63;;
18772;SDS011;9515;50.810;4.418;2023-02-26T15:59:17;2.50;;;1.00;;
18772;SDS011;9515;50.810;4.418;2023-02-26T16:01:38;4.03;;;1.70;;
18772;SDS011;9515;50.810;4.418;2023-02-26T16:04:07;2.47;;;1.90;;
18772;SDS011;9515;50.810;4.418;2023-02-26T16:06:39;3.03;;;1.70;;
18772;SDS011;9515;50.810;4.418;2023-02-26T16:09:07;5.33;;;1.57;;
18772;SDS011;9515;50.810;4.418;2023-02-26T16:11:39;3.77;;;2.30;;
18772;SDS011;9515;50.810;4.418;2023-02-26T16:14:06;2.40;;;1.37;;
18772;SDS011;9515;50.810;4.418;2023-02-26T16:16:41;3.70;;;1.27;;
18772;SDS011;9515;50.810;4.418;2023-02-26T16:19:13;5.97;;;2.40;;
18772;SDS011;9515;50.810;4.418;2023-02-26T16:21:41;2.00;;;1.10;;
18772;SDS011;9515;50.810;4.418;2023-02-26T16:24:09;3.10;;;1.20;;
18772;SDS011;9515;50.810;4.418;2023-02-26T16:26:43;3.17;;;1.23;;
18772;SDS011;9515;50.810;4.418;2023-02-26T16:29:15;2.17;;;1.40;;
18772;SDS011;9515;50.810;4.418;2023-02-26T16:32:02;3.10;;;1.27;;
18772;SDS011;9515;50.810;4.418;2023-02-26T16:34:36;2.93;;;1.20;;
18772;SDS011;9515;50.810;4.418;2023-02-26T16:37:22;3.23;;;1.40;;
18772;SDS011;9515;50.810;4.418;2023-02-26T16:43:00;2.53;;;1.47;;
18772;SDS011;9515;50.810;4.418;2023-02-26T16:48:13;6.20;;;1.83;;
18772;SDS011;9515;50.810;4.418;2023-02-26T16:50:43;2.47;;;1.40;;
18772;SDS011;9515;50.810;4.418;2023-02-26T16:53:17;3.57;;;1.50;;
18772;SDS011;9515;50.810;4.418;2023-02-26T16:55:45;1.57;;;1.07;;
18772;SDS011;9515;50.810;4.418;2023-02-26T16:58:15;4.60;;;1.53;;
18772;SDS011;9515;50.810;4.418;2023-02-26T17:00:44;7.50;;;1.37;;
18772;SDS011;9515;50.810;4.418;2023-02-26T17:03:16;3.27;;;1.60;;
18772;SDS011;9515;50.810;4.418;2023-02-26T17:08:30;4.27;;;1.40;;
18772;SDS011;9515;50.810;4.418;2023-02-26T17:11:06;2.13;;;1.30;;
18772;SDS011;9515;50.810;4.418;2023-02-26T17:13:34;5.43;;;1.40;;
18772;SDS011;9515;50.810;4.418;2023-02-26T17:16:02;3.20;;;1.40;;
18772;SDS011;9515;50.810;4.418;2023-02-26T17:18:31;5.50;;;1.67;;
18772;SDS011;9515;50.810;4.418;2023-02-26T17:20:57;4.27;;;1.73;;
18772;SDS011;9515;50.810;4.418;2023-02-26T17:23:28;4.00;;;2.20;;
18772;SDS011;9515;50.810;4.418;2023-02-26T17:25:55;6.77;;;2.13;;
18772;SDS011;9515;50.810;4.418;2023-02-26T17:28:26;3.87;;;2.13;;
18772;SDS011;9515;50.810;4.418;2023-02-26T17:30:55;5.80;;;2.67;;
18772;SDS011;9515;50.810;4.418;2023-02-26T17:33:21;6.67;;;2.50;;
18772;SDS011;9515;50.810;4.418;2023-02-26T17:35:47;5.67;;;2.63;;
18772;SDS011;9515;50.810;4.418;2023-02-26T17:38:13;6.60;;;2.90;;
18772;SDS011;9515;50.810;4.418;2023-02-26T17:40:40;6.57;;;2.20;;
18772;SDS011;9515;50.810;4.418;2023-02-26T17:43:09;4.13;;;2.10;;
18772;SDS011;9515;50.810;4.418;2023-02-26T17:45:35;6.30;;;2.60;;
18772;SDS011;9515;50.810;4.418;2023-02-26T17:48:03;3.80;;;2.80;;
18772;SDS011;9515;50.810;4.418;2023-02-26T17:50:45;4.50;;;2.70;;
18772;SDS011;9515;50.810;4.418;2023-02-26T17:53:12;5.70;;;3.03;;
18772;SDS011;9515;50.810;4.418;2023-02-26T17:55:39;6.73;;;3.80;;
18772;SDS011;9515;50.810;4.418;2023-02-26T17:58:05;5.57;;;3.00;;
18772;SDS011;9515;50.810;4.418;2023-02-26T18:00:36;9.90;;;3.57;;
18772;SDS011;9515;50.810;4.418;2023-02-26T18:03:05;6.73;;;3.27;;
18772;SDS011;9515;50.810;4.418;2023-02-26T18:05:32;7.53;;;3.43;;
18772;SDS011;9515;50.810;4.418;2023-02-26T18:08:03;8.13;;;4.30;;
18772;SDS011;9515;50.810;4.418;2023-02-26T18:10:30;9.17;;;4.27;;
18772;SDS011;9515;50.810;4.418;2023-02-26T18:12:56;11.30;;;6.33;;
18772;SDS011;9515;50.810;4.418;2023-02-26T18:15:21;16.20;;;9.43;;
18772;SDS011;9515;50.810;4.418;2023-02-26T18:17:47;13.80;;;7.43;;